createdAt,value
2023-01-01T05:02:04.890Z,4.50
2023-01-01T05:06:10.335Z,4.68
2023-01-01T05:10:13.072Z,4.20
2023-01-01T05:14:17.957Z,4.20
2023-01-01T05:18:22.053Z,4.60
2023-01-01T05:22:24.834Z,4.25
2023-01-01T05:26:29.775Z,4.85
2023-01-01T05:30:32.532Z,4.63
2023-01-01T05:38:38.620Z,4.70
2023-01-01T05:42:41.386Z,4.20
2023-01-01T05:46:44.145Z,4.63
2023-01-01T05:50:48.218Z,4.30
2023-01-01T05:54:51.210Z,4.72
2023-01-01T05:58:54.297Z,4.90
2023-01-01T06:02:57.119Z,4.22
2023-01-01T06:07:01.217Z,5.00
2023-01-01T06:11:06.246Z,4.45
2023-01-01T06:15:10.003Z,4.35
2023-01-01T06:19:12.698Z,4.70
2023-01-01T06:23:17.000Z,4.53
2023-01-01T06:27:20.396Z,4.50
2023-01-01T06:35:26.719Z,4.22
2023-01-01T06:39:30.844Z,4.30
2023-01-01T06:43:35.398Z,5.13
2023-01-01T06:47:38.338Z,5.50
2023-01-01T06:51:44.150Z,4.93
2023-01-01T06:55:56.733Z,5.07
2023-01-01T07:00:00.154Z,4.68
2023-01-01T07:04:06.059Z,4.93
2023-01-01T07:08:08.980Z,4.32
2023-01-01T07:12:13.172Z,4.40
2023-01-01T07:16:16.528Z,4.50
2023-01-01T07:20:19.547Z,4.10
2023-01-01T07:24:22.673Z,4.40
2023-01-01T07:28:27.679Z,4.53
2023-01-01T07:32:30.436Z,4.70
2023-01-01T07:36:33.583Z,4.55
2023-01-01T07:40:36.433Z,4.65
2023-01-01T07:44:40.714Z,3.95
2023-01-01T07:48:43.610Z,4.35
2023-01-01T07:52:46.605Z,4.70
2023-01-01T07:56:49.625Z,3.90
2023-01-01T08:00:54.433Z,3.38
2023-01-01T08:04:57.381Z,4.05
2023-01-01T08:09:00.161Z,4.45
2023-01-01T08:13:04.035Z,3.47
2023-01-01T08:17:08.192Z,3.90
2023-01-01T08:21:11.017Z,3.80
2023-01-01T08:25:14.019Z,3.83
2023-01-01T08:29:17.581Z,3.85
2023-01-01T08:33:23.078Z,3.30
2023-01-01T08:37:25.993Z,3.60
2023-01-01T08:41:29.674Z,3.75
2023-01-01T08:45:32.455Z,3.30
2023-01-01T08:49:36.584Z,3.00
2023-01-01T08:53:39.336Z,3.15
2023-01-01T08:57:42.100Z,3.20
2023-01-01T09:01:45.174Z,2.97
2023-01-01T09:05:49.480Z,3.20
2023-01-01T09:09:52.213Z,3.15
2023-01-01T09:13:56.154Z,2.92
2023-01-01T09:17:58.919Z,2.63
2023-01-01T09:22:03.118Z,2.40
2023-01-01T09:26:06.338Z,2.60
2023-01-01T09:30:11.595Z,2.75
2023-01-01T09:34:14.894Z,2.50
2023-01-01T09:38:19.503Z,2.67
2023-01-01T09:42:35.170Z,2.28
2023-01-01T09:46:38.193Z,2.40
2023-01-01T09:50:43.815Z,2.33
2023-01-01T09:54:52.823Z,2.40
2023-01-01T09:58:59.187Z,2.55
2023-01-01T10:03:16.867Z,2.45
2023-01-01T10:07:30.167Z,2.92
2023-01-01T10:11:43.745Z,2.05
2023-01-01T10:19:58.290Z,2.38
2023-01-01T10:24:05.640Z,2.55
2023-01-01T10:28:16.474Z,2.55
2023-01-01T10:32:22.131Z,1.80
2023-01-01T10:36:26.892Z,2.28
2023-01-01T10:40:31.285Z,1.65
2023-01-01T10:44:36.693Z,2.33
2023-01-01T10:48:39.729Z,2.10
2023-01-01T10:52:44.138Z,2.55
2023-01-01T10:56:46.925Z,2.00
2023-01-01T11:00:59.751Z,1.80
2023-01-01T11:05:21.095Z,2.00
2023-01-01T11:09:26.902Z,1.95
2023-01-01T11:13:31.035Z,2.00
2023-01-01T11:17:37.626Z,2.00
2023-01-01T11:21:48.308Z,2.00
2023-01-01T11:26:05.110Z,2.00
2023-01-01T11:30:22.267Z,2.03
2023-01-01T11:34:33.250Z,1.60
2023-01-01T11:38:36.379Z,2.53
2023-01-01T11:42:46.569Z,1.88
2023-01-01T11:46:49.828Z,1.92
2023-01-01T11:50:56.549Z,2.10
2023-01-01T11:55:09.815Z,1.75
2023-01-01T11:59:17.463Z,1.90
2023-01-01T12:03:32.939Z,2.00
2023-01-01T12:07:41.587Z,2.03
2023-01-01T12:11:49.227Z,1.90
2023-01-01T12:16:02.461Z,1.75
2023-01-01T12:20:14.420Z,1.88
2023-01-01T12:24:18.731Z,1.90
2023-01-01T12:28:34.499Z,2.10
2023-01-01T12:33:05.653Z,2.67
2023-01-01T12:37:21.475Z,1.85
2023-01-01T12:41:33.057Z,2.00
2023-01-01T12:46:06.236Z,2.00
2023-01-01T12:50:17.706Z,2.05
2023-01-01T12:54:40.139Z,1.80
2023-01-01T12:58:51.801Z,1.80
2023-01-01T13:02:59.789Z,2.10
2023-01-01T13:07:05.779Z,2.40
2023-01-01T13:11:10.711Z,2.00
2023-01-01T13:15:48.515Z,1.88
2023-01-01T13:19:58.028Z,1.90
2023-01-01T13:24:22.304Z,1.85
2023-01-01T13:28:25.097Z,1.98
2023-01-01T13:33:05.035Z,1.75
2023-01-01T13:37:28.579Z,1.90
2023-01-01T13:41:35.540Z,1.80
2023-01-01T13:50:10.563Z,2.63
2023-01-01T13:54:43.281Z,1.95
2023-01-01T13:59:07.834Z,2.45
2023-01-01T14:03:14.547Z,1.80
2023-01-01T14:11:53.674Z,1.70
2023-01-01T14:15:59.582Z,2.00
2023-01-01T14:20:06.675Z,2.20
2023-01-01T14:24:09.916Z,2.22
2023-01-01T14:28:21.021Z,2.10
2023-01-01T14:32:27.293Z,2.08
2023-01-01T14:36:55.470Z,1.80
2023-01-01T14:41:13.970Z,1.80
2023-01-01T14:45:19.884Z,1.85
2023-01-01T14:49:27.839Z,1.98
2023-01-01T14:53:34.374Z,1.70
2023-01-01T14:57:38.815Z,1.88
2023-01-01T15:01:43.170Z,2.28
2023-01-01T15:05:47.497Z,2.10
2023-01-01T15:09:51.040Z,2.05
2023-01-01T15:13:55.428Z,2.03
2023-01-01T15:17:59.654Z,1.85
2023-01-01T15:22:03.518Z,2.08
2023-01-01T15:26:09.913Z,1.80
2023-01-01T15:30:24.901Z,2.05
2023-01-01T15:34:31.568Z,2.00
2023-01-01T15:38:36.873Z,2.53
2023-01-01T15:42:41.790Z,2.10
2023-01-01T15:46:47.340Z,2.17
2023-01-01T15:51:12.766Z,2.35
2023-01-01T15:55:16.702Z,2.10
2023-01-01T15:59:27.419Z,2.53
2023-01-01T16:03:32.992Z,1.98
2023-01-01T16:07:37.059Z,1.80
2023-01-01T16:11:39.813Z,2.13
2023-01-01T16:15:50.420Z,1.88
2023-01-01T16:19:55.078Z,1.90
2023-01-01T16:23:59.718Z,2.28
2023-01-01T16:28:04.126Z,1.92
2023-01-01T16:32:07.252Z,1.92
2023-01-01T16:36:13.036Z,2.15
2023-01-01T16:40:17.958Z,2.20
2023-01-01T16:44:21.152Z,2.08
2023-01-01T16:48:23.993Z,1.98
2023-01-01T16:52:32.901Z,2.30
2023-01-01T16:56:37.661Z,2.17
2023-01-01T17:00:40.389Z,2.00
2023-01-01T17:04:43.217Z,2.60
2023-01-01T17:08:46.050Z,2.28
2023-01-01T17:12:50.137Z,2.63
2023-01-01T17:16:55.280Z,2.53
2023-01-01T17:21:03.626Z,2.47
2023-01-01T17:25:07.425Z,2.45
2023-01-01T17:29:11.951Z,2.50
2023-01-01T17:33:14.726Z,2.30
2023-01-01T17:37:17.446Z,3.10
2023-01-01T17:41:20.268Z,2.75
2023-01-01T17:45:24.398Z,2.00
2023-01-01T17:49:27.074Z,2.30
2023-01-01T17:53:29.898Z,2.30
2023-01-01T17:57:33.017Z,2.22
2023-01-01T18:01:37.450Z,2.10
2023-01-01T18:05:40.311Z,2.00
2023-01-01T18:09:43.113Z,2.20
2023-01-01T18:13:45.829Z,2.85
2023-01-01T18:17:50.376Z,2.60
2023-01-01T18:21:53.269Z,2.40
2023-01-01T18:26:00.996Z,2.45
2023-01-01T18:30:03.924Z,2.22
2023-01-01T18:34:08.153Z,2.58
2023-01-01T18:38:12.019Z,2.50
2023-01-01T18:42:38.866Z,2.70
2023-01-01T18:46:41.592Z,2.60
2023-01-01T18:50:45.659Z,2.05
2023-01-01T18:54:48.620Z,2.30
2023-01-01T18:58:52.256Z,2.38
2023-01-01T19:02:59.424Z,2.17
2023-01-01T19:07:03.874Z,3.17
2023-01-01T19:11:12.798Z,2.50
2023-01-01T19:15:18.144Z,2.10
2023-01-01T19:19:23.074Z,2.15
2023-01-01T19:23:27.237Z,2.40
2023-01-01T19:27:35.410Z,2.60
2023-01-01T19:31:38.300Z,2.50
2023-01-01T19:35:41.106Z,2.72
2023-01-01T19:39:45.310Z,2.55
2023-01-01T19:43:48.219Z,2.30
2023-01-01T19:47:51.136Z,2.45
2023-01-01T19:51:53.874Z,2.90
2023-01-01T19:55:58.418Z,2.40
2023-01-01T20:00:01.165Z,2.53
2023-01-01T20:04:04.059Z,2.67
2023-01-01T20:12:11.532Z,2.60
2023-01-01T20:16:14.791Z,2.83
2023-01-01T20:20:18.341Z,2.75
2023-01-01T20:24:21.658Z,2.85
2023-01-01T20:28:43.822Z,2.60
2023-01-01T20:32:47.079Z,2.45
2023-01-01T20:37:07.663Z,2.78
2023-01-01T20:41:25.692Z,3.15
2023-01-01T20:45:31.891Z,2.88
2023-01-01T20:49:34.923Z,2.80
2023-01-01T20:53:37.984Z,2.92
2023-01-01T20:57:41.028Z,2.80
2023-01-01T21:05:48.909Z,2.90
2023-01-01T21:09:52.034Z,2.55
2023-01-01T21:13:54.909Z,2.75
2023-01-01T21:17:59.126Z,2.67
2023-01-01T21:22:01.885Z,2.85
2023-01-01T21:26:15.100Z,3.53
2023-01-01T21:30:18.457Z,2.70
2023-01-01T21:34:33.341Z,2.28
2023-01-01T21:38:36.536Z,2.75
2023-01-01T21:42:39.261Z,2.95
2023-01-01T21:46:47.006Z,3.00
2023-01-01T21:50:51.905Z,2.75
2023-01-01T21:54:55.720Z,2.60
2023-01-01T21:59:21.735Z,3.13
